sensor_id;sensor_type;location;lat;lon;timestamp;temperature;humidity
67890;DHT22;54685;52.082;5.426;2022-08-05T00:01:22;20.60;99.90
67890;DHT22;54685;52.082;5.426;2022-08-05T00:03:54;20.60;99.90
67890;DHT22;54685;52.082;5.426;2022-08-05T00:06:23;20.60;99.90
67890;DHT22;54685;52.082;5.426;2022-08-05T00:08:59;20.60;99.90
67890;DHT22;54685;52.082;5.426;2022-08-05T00:11:27;20.60;99.90
67890;DHT22;54685;52.082;5.426;2022-08-05T00:14:01;20.60;99.90
67890;DHT22;54685;52.082;5.426;2022-08-05T00:16:38;20.60;99.90
67890;DHT22;54685;52.082;5.426;2022-08-05T00:19:22;20.60;99.90
67890;DHT22;54685;52.082;5.426;2022-08-05T00:21:58;20.50;99.90
67890;DHT22;54685;52.082;5.426;2022-08-05T00:24:25;20.50;99.90
67890;DHT22;54685;52.082;5.426;2022-08-05T00:26:58;20.50;99.90
67890;DHT22;54685;52.082;5.426;2022-08-05T00:29:25;20.50;99.90
67890;DHT22;54685;52.082;5.426;2022-08-05T00:32:04;20.50;99.90
67890;DHT22;54685;52.082;5.426;2022-08-05T00:34:40;20.50;99.90
67890;DHT22;54685;52.082;5.426;2022-08-05T00:37:26;20.50;99.90
67890;DHT22;54685;52.082;5.426;2022-08-05T00:40:13;20.40;99.90
67890;DHT22;54685;52.082;5.426;2022-08-05T00:42:54;20.40;99.90
67890;DHT22;54685;52.082;5.426;2022-08-05T00:45:20;20.50;99.90
67890;DHT22;54685;52.082;5.426;2022-08-05T00:48:05;20.50;99.90
67890;DHT22;54685;52.082;5.426;2022-08-05T00:50:33;20.40;99.90
67890;DHT22;54685;52.082;5.426;2022-08-05T00:53:01;20.30;99.90
67890;DHT22;54685;52.082;5.426;2022-08-05T00:55:28;20.40;99.90
67890;DHT22;54685;52.082;5.426;2022-08-05T00:58:10;20.30;99.90
67890;DHT22;54685;52.082;5.426;2022-08-05T01:00:39;20.30;99.90
67890;DHT22;54685;52.082;5.426;2022-08-05T01:03:07;20.30;99.90
67890;DHT22;54685;52.082;5.426;2022-08-05T01:05:38;20.30;99.90
67890;DHT22;54685;52.082;5.426;2022-08-05T01:08:06;20.30;99.90
67890;DHT22;54685;52.082;5.426;2022-08-05T01:11:03;20.20;99.90
67890;DHT22;54685;52.082;5.426;2022-08-05T01:17:19;20.20;99.90
67890;DHT22;54685;52.082;5.426;2022-08-05T01:20:15;20.20;99.90
67890;DHT22;54685;52.082;5.426;2022-08-05T01:23:07;20.20;99.90
67890;DHT22;54685;52.082;5.426;2022-08-05T01:25:52;20.20;99.90
67890;DHT22;54685;52.082;5.426;2022-08-05T01:28:34;20.10;99.90
67890;DHT22;54685;52.082;5.426;2022-08-05T01:31:14;20.10;99.90
67890;DHT22;54685;52.082;5.426;2022-08-05T01:33:49;20.10;99.90
67890;DHT22;54685;52.082;5.426;2022-08-05T01:36:19;20.10;99.90
67890;DHT22;54685;52.082;5.426;2022-08-05T01:38:54;20.10;99.90
67890;DHT22;54685;52.082;5.426;2022-08-05T01:41:26;20.10;99.90
67890;DHT22;54685;52.082;5.426;2022-08-05T01:43:55;20.00;99.90
67890;DHT22;54685;52.082;5.426;2022-08-05T01:46:23;19.90;99.90
67890;DHT22;54685;52.082;5.426;2022-08-05T01:49:14;19.90;99.90
67890;DHT22;54685;52.082;5.426;2022-08-05T01:51:53;19.90;99.90
67890;DHT22;54685;52.082;5.426;2022-08-05T01:54:22;20.00;99.90
67890;DHT22;54685;52.082;5.426;2022-08-05T01:56:55;20.00;99.90
67890;DHT22;54685;52.082;5.426;2022-08-05T01:59:45;20.00;99.90
67890;DHT22;54685;52.082;5.426;2022-08-05T02:02:14;20.00;99.90
67890;DHT22;54685;52.082;5.426;2022-08-05T02:04:44;19.90;99.90
67890;DHT22;54685;52.082;5.426;2022-08-05T02:07:15;19.90;99.90
67890;DHT22;54685;52.082;5.426;2022-08-05T02:09:49;19.90;99.90
67890;DHT22;54685;52.082;5.426;2022-08-05T02:12:42;19.90;99.90
67890;DHT22;54685;52.082;5.426;2022-08-05T02:15:28;19.90;99.90
67890;DHT22;54685;52.082;5.426;2022-08-05T02:18:25;19.90;99.90
67890;DHT22;54685;52.082;5.426;2022-08-05T02:21:12;19.80;99.90
67890;DHT22;54685;52.082;5.426;2022-08-05T02:23:44;19.80;99.90
67890;DHT22;54685;52.082;5.426;2022-08-05T02:26:14;19.70;99.90
67890;DHT22;54685;52.082;5.426;2022-08-05T02:28:47;19.70;99.90
67890;DHT22;54685;52.082;5.426;2022-08-05T02:31:26;19.70;99.90
67890;DHT22;54685;52.082;5.426;2022-08-05T02:34:08;19.70;99.90
67890;DHT22;54685;52.082;5.426;2022-08-05T02:36:49;19.70;99.90
67890;DHT22;54685;52.082;5.426;2022-08-05T02:39:20;19.60;99.90
67890;DHT22;54685;52.082;5.426;2022-08-05T02:41:48;19.50;99.90
67890;DHT22;54685;52.082;5.426;2022-08-05T02:44:27;19.50;99.90
67890;DHT22;54685;52.082;5.426;2022-08-05T02:46:56;19.40;99.90
67890;DHT22;54685;52.082;5.426;2022-08-05T02:49:30;19.40;99.90
67890;DHT22;54685;52.082;5.426;2022-08-05T02:52:06;19.40;99.90
67890;DHT22;54685;52.082;5.426;2022-08-05T02:54:35;19.40;99.90
67890;DHT22;54685;52.082;5.426;2022-08-05T02:57:09;19.50;99.90
67890;DHT22;54685;52.082;5.426;2022-08-05T02:59:56;19.50;99.90
67890;DHT22;54685;52.082;5.426;2022-08-05T03:02:32;19.50;99.90
67890;DHT22;54685;52.082;5.426;2022-08-05T03:05:01;19.40;99.90
67890;DHT22;54685;52.082;5.426;2022-08-05T03:07:29;19.30;99.90
67890;DHT22;54685;52.082;5.426;2022-08-05T03:10:17;19.30;99.90
67890;DHT22;54685;52.082;5.426;2022-08-05T03:12:51;19.30;99.90
67890;DHT22;54685;52.082;5.426;2022-08-05T03:15:19;19.30;99.90
67890;DHT22;54685;52.082;5.426;2022-08-05T03:17:46;19.40;99.90
67890;DHT22;54685;52.082;5.426;2022-08-05T03:20:13;19.40;99.90
67890;DHT22;54685;52.082;5.426;2022-08-05T03:22:40;19.30;99.90
67890;DHT22;54685;52.082;5.426;2022-08-05T03:25:18;19.40;99.90
67890;DHT22;54685;52.082;5.426;2022-08-05T03:28:07;19.30;99.90
67890;DHT22;54685;52.082;5.426;2022-08-05T03:30:34;19.30;99.90
67890;DHT22;54685;52.082;5.426;2022-08-05T03:33:05;19.30;99.90
67890;DHT22;54685;52.082;5.426;2022-08-05T03:35:33;19.40;99.90
67890;DHT22;54685;52.082;5.426;2022-08-05T03:38:11;19.40;99.90
67890;DHT22;54685;52.082;5.426;2022-08-05T03:40:44;19.40;99.90
67890;DHT22;54685;52.082;5.426;2022-08-05T03:43:13;19.40;99.90
67890;DHT22;54685;52.082;5.426;2022-08-05T03:46:01;19.30;99.90
67890;DHT22;54685;52.082;5.426;2022-08-05T03:48:29;19.20;99.90
67890;DHT22;54685;52.082;5.426;2022-08-05T03:54:36;19.20;99.90
67890;DHT22;54685;52.082;5.426;2022-08-05T03:57:26;19.20;99.90
67890;DHT22;54685;52.082;5.426;2022-08-05T04:00:11;19.20;99.90
67890;DHT22;54685;52.082;5.426;2022-08-05T04:02:44;19.30;99.90
67890;DHT22;54685;52.082;5.426;2022-08-05T04:05:29;19.30;99.90
67890;DHT22;54685;52.082;5.426;2022-08-05T04:08:02;19.30;99.90
67890;DHT22;54685;52.082;5.426;2022-08-05T04:10:49;19.20;99.90
67890;DHT22;54685;52.082;5.426;2022-08-05T04:13:17;19.20;99.90
67890;DHT22;54685;52.082;5.426;2022-08-05T04:15:45;19.20;99.90
67890;DHT22;54685;52.082;5.426;2022-08-05T04:18:30;19.10;99.90
67890;DHT22;54685;52.082;5.426;2022-08-05T04:21:00;19.10;99.90
67890;DHT22;54685;52.082;5.426;2022-08-05T04:23:29;19.10;99.90
67890;DHT22;54685;52.082;5.426;2022-08-05T04:26:17;19.10;99.90
67890;DHT22;54685;52.082;5.426;2022-08-05T04:28:44;19.10;99.90
67890;DHT22;54685;52.082;5.426;2022-08-05T04:31:18;19.00;99.90
67890;DHT22;54685;52.082;5.426;2022-08-05T04:33:44;19.00;99.90
67890;DHT22;54685;52.082;5.426;2022-08-05T04:36:31;19.00;99.90
67890;DHT22;54685;52.082;5.426;2022-08-05T04:39:16;19.00;99.90
67890;DHT22;54685;52.082;5.426;2022-08-05T04:41:44;19.00;99.90
67890;DHT22;54685;52.082;5.426;2022-08-05T04:44:13;19.00;99.90
67890;DHT22;54685;52.082;5.426;2022-08-05T04:46:46;19.00;99.90
67890;DHT22;54685;52.082;5.426;2022-08-05T04:49:14;18.90;99.90
67890;DHT22;54685;52.082;5.426;2022-08-05T04:51:42;19.00;99.90
67890;DHT22;54685;52.082;5.426;2022-08-05T04:54:09;18.90;99.90
67890;DHT22;54685;52.082;5.426;2022-08-05T04:56:38;18.90;99.90
67890;DHT22;54685;52.082;5.426;2022-08-05T04:59:06;18.90;99.90
67890;DHT22;54685;52.082;5.426;2022-08-05T05:01:55;18.90;99.90
67890;DHT22;54685;52.082;5.426;2022-08-05T05:04:44;18.90;99.90
67890;DHT22;54685;52.082;5.426;2022-08-05T05:07:16;18.90;99.90
67890;DHT22;54685;52.082;5.426;2022-08-05T05:09:44;18.90;99.90
67890;DHT22;54685;52.082;5.426;2022-08-05T05:12:11;18.90;99.90
67890;DHT22;54685;52.082;5.426;2022-08-05T05:14:38;18.90;99.90
67890;DHT22;54685;52.082;5.426;2022-08-05T05:17:16;18.90;99.90
67890;DHT22;54685;52.082;5.426;2022-08-05T05:19:52;18.90;99.90
67890;DHT22;54685;52.082;5.426;2022-08-05T05:22:19;18.90;99.90
67890;DHT22;54685;52.082;5.426;2022-08-05T05:24:55;18.90;99.90
67890;DHT22;54685;52.082;5.426;2022-08-05T05:27:27;18.90;99.90
67890;DHT22;54685;52.082;5.426;2022-08-05T05:30:14;18.90;99.90
67890;DHT22;54685;52.082;5.426;2022-08-05T05:33:00;19.00;99.90
67890;DHT22;54685;52.082;5.426;2022-08-05T05:35:45;19.00;99.90
67890;DHT22;54685;52.082;5.426;2022-08-05T05:38:14;19.00;99.90
67890;DHT22;54685;52.082;5.426;2022-08-05T05:40:54;19.10;99.90
67890;DHT22;54685;52.082;5.426;2022-08-05T05:43:21;19.00;99.90
67890;DHT22;54685;52.082;5.426;2022-08-05T05:46:10;19.10;99.90
67890;DHT22;54685;52.082;5.426;2022-08-05T05:48:45;19.20;99.90
67890;DHT22;54685;52.082;5.426;2022-08-05T05:51:18;19.20;99.90
67890;DHT22;54685;52.082;5.426;2022-08-05T05:53:45;19.20;99.90
67890;DHT22;54685;52.082;5.426;2022-08-05T05:56:27;19.30;99.90
67890;DHT22;54685;52.082;5.426;2022-08-05T05:59:02;19.30;99.90
67890;DHT22;54685;52.082;5.426;2022-08-05T06:01:34;19.30;99.90
67890;DHT22;54685;52.082;5.426;2022-08-05T06:04:10;19.40;99.90
67890;DHT22;54685;52.082;5.426;2022-08-05T06:06:41;19.40;99.90
67890;DHT22;54685;52.082;5.426;2022-08-05T06:09:15;19.50;99.90
67890;DHT22;54685;52.082;5.426;2022-08-05T06:11:51;19.60;99.90
67890;DHT22;54685;52.082;5.426;2022-08-05T06:14:28;19.60;99.90
67890;DHT22;54685;52.082;5.426;2022-08-05T06:16:56;19.60;99.90
67890;DHT22;54685;52.082;5.426;2022-08-05T06:19:24;19.60;99.90
67890;DHT22;54685;52.082;5.426;2022-08-05T06:22:05;19.70;99.90
67890;DHT22;54685;52.082;5.426;2022-08-05T06:24:40;19.70;99.90
67890;DHT22;54685;52.082;5.426;2022-08-05T06:27:13;19.70;99.90
67890;DHT22;54685;52.082;5.426;2022-08-05T06:30:00;19.70;99.90
67890;DHT22;54685;52.082;5.426;2022-08-05T06:32:42;19.80;99.90
67890;DHT22;54685;52.082;5.426;2022-08-05T06:35:12;19.90;99.90
67890;DHT22;54685;52.082;5.426;2022-08-05T06:37:59;19.90;99.90
67890;DHT22;54685;52.082;5.426;2022-08-05T06:40:36;20.00;99.90
67890;DHT22;54685;52.082;5.426;2022-08-05T06:43:08;20.00;99.90
67890;DHT22;54685;52.082;5.426;2022-08-05T06:45:54;19.90;99.90
67890;DHT22;54685;52.082;5.426;2022-08-05T06:48:33;19.80;99.90
67890;DHT22;54685;52.082;5.426;2022-08-05T06:51:21;19.80;99.90
67890;DHT22;54685;52.082;5.426;2022-08-05T06:53:57;19.90;99.90
67890;DHT22;54685;52.082;5.426;2022-08-05T06:56:24;19.90;99.90
67890;DHT22;54685;52.082;5.426;2022-08-05T06:58:53;20.00;99.90
67890;DHT22;54685;52.082;5.426;2022-08-05T07:01:20;20.00;99.90
67890;DHT22;54685;52.082;5.426;2022-08-05T07:03:48;20.10;99.90
67890;DHT22;54685;52.082;5.426;2022-08-05T07:06:15;20.20;99.90
67890;DHT22;54685;52.082;5.426;2022-08-05T07:08:46;20.30;99.90
67890;DHT22;54685;52.082;5.426;2022-08-05T07:11:20;20.30;99.90
67890;DHT22;54685;52.082;5.426;2022-08-05T07:13:51;20.20;99.90
67890;DHT22;54685;52.082;5.426;2022-08-05T07:16:54;20.20;99.90
67890;DHT22;54685;52.082;5.426;2022-08-05T07:19:46;20.20;99.90
67890;DHT22;54685;52.082;5.426;2022-08-05T07:22:34;20.20;99.90
67890;DHT22;54685;52.082;5.426;2022-08-05T07:25:01;20.20;99.90
67890;DHT22;54685;52.082;5.426;2022-08-05T07:27:49;20.30;99.90
67890;DHT22;54685;52.082;5.426;2022-08-05T07:30:29;20.40;99.90
67890;DHT22;54685;52.082;5.426;2022-08-05T07:32:57;20.50;99.90
67890;DHT22;54685;52.082;5.426;2022-08-05T07:35:25;20.50;99.90
67890;DHT22;54685;52.082;5.426;2022-08-05T07:38:16;20.60;99.90
67890;DHT22;54685;52.082;5.426;2022-08-05T07:41:08;20.60;99.90
67890;DHT22;54685;52.082;5.426;2022-08-05T07:43:56;20.60;99.90
67890;DHT22;54685;52.082;5.426;2022-08-05T07:46:29;20.50;99.90
67890;DHT22;54685;52.082;5.426;2022-08-05T07:48:58;20.50;99.90
67890;DHT22;54685;52.082;5.426;2022-08-05T07:51:37;20.50;99.90
67890;DHT22;54685;52.082;5.426;2022-08-05T07:54:14;20.50;99.90
67890;DHT22;54685;52.082;5.426;2022-08-05T07:56:41;20.50;99.90
67890;DHT22;54685;52.082;5.426;2022-08-05T07:59:28;20.50;99.90
67890;DHT22;54685;52.082;5.426;2022-08-05T08:02:05;20.60;99.50
67890;DHT22;54685;52.082;5.426;2022-08-05T08:04:43;20.70;99.90
67890;DHT22;54685;52.082;5.426;2022-08-05T08:07:11;20.80;96.40
67890;DHT22;54685;52.082;5.426;2022-08-05T08:09:38;20.90;96.50
67890;DHT22;54685;52.082;5.426;2022-08-05T08:12:05;21.00;91.70
67890;DHT22;54685;52.082;5.426;2022-08-05T08:14:52;21.00;87.50
67890;DHT22;54685;52.082;5.426;2022-08-05T08:17:20;21.00;82.50
67890;DHT22;54685;52.082;5.426;2022-08-05T08:19:47;21.10;84.20
67890;DHT22;54685;52.082;5.426;2022-08-05T08:22:35;21.20;82.60
67890;DHT22;54685;52.082;5.426;2022-08-05T08:25:02;21.20;78.10
67890;DHT22;54685;52.082;5.426;2022-08-05T08:27:42;21.30;82.40
67890;DHT22;54685;52.082;5.426;2022-08-05T08:30:14;21.40;83.30
67890;DHT22;54685;52.082;5.426;2022-08-05T08:33:06;21.40;78.80
67890;DHT22;54685;52.082;5.426;2022-08-05T08:35:39;21.40;77.70
67890;DHT22;54685;52.082;5.426;2022-08-05T08:38:26;21.50;81.30
67890;DHT22;54685;52.082;5.426;2022-08-05T08:41:06;21.70;77.30
67890;DHT22;54685;52.082;5.426;2022-08-05T08:43:35;21.80;77.70
67890;DHT22;54685;52.082;5.426;2022-08-05T08:46:23;21.90;75.30
67890;DHT22;54685;52.082;5.426;2022-08-05T08:48:53;22.10;68.80
67890;DHT22;54685;52.082;5.426;2022-08-05T08:51:47;22.20;66.30
67890;DHT22;54685;52.082;5.426;2022-08-05T08:54:31;22.30;65.80
67890;DHT22;54685;52.082;5.426;2022-08-05T08:56:58;22.30;62.90
67890;DHT22;54685;52.082;5.426;2022-08-05T08:59:26;22.40;64.50
67890;DHT22;54685;52.082;5.426;2022-08-05T09:02:00;22.50;66.40
67890;DHT22;54685;52.082;5.426;2022-08-05T09:04:35;22.40;59.90
67890;DHT22;54685;52.082;5.426;2022-08-05T09:07:25;22.50;61.00
67890;DHT22;54685;52.082;5.426;2022-08-05T09:10:05;22.50;59.50
67890;DHT22;54685;52.082;5.426;2022-08-05T09:12:33;22.50;61.10
67890;DHT22;54685;52.082;5.426;2022-08-05T09:15:03;22.50;61.00
67890;DHT22;54685;52.082;5.426;2022-08-05T09:17:32;22.80;62.60
67890;DHT22;54685;52.082;5.426;2022-08-05T09:20:15;22.90;59.70
67890;DHT22;54685;52.082;5.426;2022-08-05T09:23:08;23.20;61.50
67890;DHT22;54685;52.082;5.426;2022-08-05T09:25:50;23.30;59.90
67890;DHT22;54685;52.082;5.426;2022-08-05T09:28:30;23.80;58.40
67890;DHT22;54685;52.082;5.426;2022-08-05T09:36:19;24.10;56.60
67890;DHT22;54685;52.082;5.426;2022-08-05T09:39:02;24.10;57.00
67890;DHT22;54685;52.082;5.426;2022-08-05T09:41:58;24.00;53.50
67890;DHT22;54685;52.082;5.426;2022-08-05T09:44:41;23.90;53.40
67890;DHT22;54685;52.082;5.426;2022-08-05T09:47:22;23.80;53.30
67890;DHT22;54685;52.082;5.426;2022-08-05T09:49:51;23.60;53.10
67890;DHT22;54685;52.082;5.426;2022-08-05T09:52:30;23.40;53.20
67890;DHT22;54685;52.082;5.426;2022-08-05T09:55:01;23.40;53.10
67890;DHT22;54685;52.082;5.426;2022-08-05T09:57:48;23.30;51.60
67890;DHT22;54685;52.082;5.426;2022-08-05T10:00:21;23.30;50.50
67890;DHT22;54685;52.082;5.426;2022-08-05T10:02:53;23.30;48.80
67890;DHT22;54685;52.082;5.426;2022-08-05T10:05:23;23.50;49.30
67890;DHT22;54685;52.082;5.426;2022-08-05T10:07:58;23.80;49.30
67890;DHT22;54685;52.082;5.426;2022-08-05T10:10:49;23.90;47.40
67890;DHT22;54685;52.082;5.426;2022-08-05T10:13:31;24.20;46.70
67890;DHT22;54685;52.082;5.426;2022-08-05T10:16:34;24.40;45.40
67890;DHT22;54685;52.082;5.426;2022-08-05T10:19:18;24.50;46.10
67890;DHT22;54685;52.082;5.426;2022-08-05T10:21:57;24.60;45.60
67890;DHT22;54685;52.082;5.426;2022-08-05T10:24:25;24.70;45.00
67890;DHT22;54685;52.082;5.426;2022-08-05T10:26:54;24.60;44.50
67890;DHT22;54685;52.082;5.426;2022-08-05T10:29:27;24.50;44.60
67890;DHT22;54685;52.082;5.426;2022-08-05T10:32:15;24.40;43.50
67890;DHT22;54685;52.082;5.426;2022-08-05T10:35:03;24.40;45.30
67890;DHT22;54685;52.082;5.426;2022-08-05T10:37:31;24.00;45.60
67890;DHT22;54685;52.082;5.426;2022-08-05T10:40:33;23.90;47.10
67890;DHT22;54685;52.082;5.426;2022-08-05T10:46:05;23.80;47.40
67890;DHT22;54685;52.082;5.426;2022-08-05T10:48:47;23.70;49.00
67890;DHT22;54685;52.082;5.426;2022-08-05T10:51:24;23.60;43.30
67890;DHT22;54685;52.082;5.426;2022-08-05T10:53:59;23.60;44.80
67890;DHT22;54685;52.082;5.426;2022-08-05T10:56:51;23.60;43.50
67890;DHT22;54685;52.082;5.426;2022-08-05T10:59:27;23.50;44.60
67890;DHT22;54685;52.082;5.426;2022-08-05T11:02:14;23.40;44.30
67890;DHT22;54685;52.082;5.426;2022-08-05T11:05:08;23.60;44.50
67890;DHT22;54685;52.082;5.426;2022-08-05T11:07:59;23.80;44.50
67890;DHT22;54685;52.082;5.426;2022-08-05T11:10:34;23.80;42.00
67890;DHT22;54685;52.082;5.426;2022-08-05T11:13:03;23.90;43.40
67890;DHT22;54685;52.082;5.426;2022-08-05T11:15:36;24.00;43.40
67890;DHT22;54685;52.082;5.426;2022-08-05T11:18:31;24.60;44.30
67890;DHT22;54685;52.082;5.426;2022-08-05T11:21:01;25.10;41.20
67890;DHT22;54685;52.082;5.426;2022-08-05T11:23:41;25.30;39.80
67890;DHT22;54685;52.082;5.426;2022-08-05T11:26:29;25.70;40.30
67890;DHT22;54685;52.082;5.426;2022-08-05T11:29:00;25.90;39.10
67890;DHT22;54685;52.082;5.426;2022-08-05T11:31:41;26.10;34.40
67890;DHT22;54685;52.082;5.426;2022-08-05T11:34:40;26.20;34.60
67890;DHT22;54685;52.082;5.426;2022-08-05T11:40:59;26.40;32.50
67890;DHT22;54685;52.082;5.426;2022-08-05T11:44:12;26.70;34.50
67890;DHT22;54685;52.082;5.426;2022-08-05T11:47:01;26.50;33.40
67890;DHT22;54685;52.082;5.426;2022-08-05T11:49:42;26.20;35.40
67890;DHT22;54685;52.082;5.426;2022-08-05T11:52:24;25.90;35.40
67890;DHT22;54685;52.082;5.426;2022-08-05T11:54:56;25.60;35.80
67890;DHT22;54685;52.082;5.426;2022-08-05T11:57:28;25.30;36.30
67890;DHT22;54685;52.082;5.426;2022-08-05T12:00:27;24.80;36.60
67890;DHT22;54685;52.082;5.426;2022-08-05T12:02:56;24.70;39.30
67890;DHT22;54685;52.082;5.426;2022-08-05T12:05:27;24.50;40.00
67890;DHT22;54685;52.082;5.426;2022-08-05T12:08:04;24.50;39.40
67890;DHT22;54685;52.082;5.426;2022-08-05T12:10:38;24.50;40.00
67890;DHT22;54685;52.082;5.426;2022-08-05T12:13:15;24.50;40.90
67890;DHT22;54685;52.082;5.426;2022-08-05T12:16:09;24.60;40.40
67890;DHT22;54685;52.082;5.426;2022-08-05T12:18:44;24.70;40.00
67890;DHT22;54685;52.082;5.426;2022-08-05T12:21:28;24.80;38.40
67890;DHT22;54685;52.082;5.426;2022-08-05T12:24:20;24.80;37.70
67890;DHT22;54685;52.082;5.426;2022-08-05T12:26:52;24.80;36.30
67890;DHT22;54685;52.082;5.426;2022-08-05T12:29:21;25.00;37.60
67890;DHT22;54685;52.082;5.426;2022-08-05T12:34:22;25.40;37.70
67890;DHT22;54685;52.082;5.426;2022-08-05T12:36:53;25.40;37.60
67890;DHT22;54685;52.082;5.426;2022-08-05T12:39:22;25.40;37.70
67890;DHT22;54685;52.082;5.426;2022-08-05T12:42:16;25.40;37.50
67890;DHT22;54685;52.082;5.426;2022-08-05T12:44:43;25.30;38.60
67890;DHT22;54685;52.082;5.426;2022-08-05T12:47:24;25.40;38.90
67890;DHT22;54685;52.082;5.426;2022-08-05T12:49:53;25.40;39.00
67890;DHT22;54685;52.082;5.426;2022-08-05T12:52:32;25.30;38.70
67890;DHT22;54685;52.082;5.426;2022-08-05T12:55:16;25.00;37.70
67890;DHT22;54685;52.082;5.426;2022-08-05T12:57:49;24.80;38.90
67890;DHT22;54685;52.082;5.426;2022-08-05T13:00:44;24.60;40.70
67890;DHT22;54685;52.082;5.426;2022-08-05T13:03:35;24.70;41.50
67890;DHT22;54685;52.082;5.426;2022-08-05T13:06:14;24.50;40.20
67890;DHT22;54685;52.082;5.426;2022-08-05T13:08:42;24.60;40.70
67890;DHT22;54685;52.082;5.426;2022-08-05T13:11:28;24.40;40.20
67890;DHT22;54685;52.082;5.426;2022-08-05T13:14:21;24.40;40.80
67890;DHT22;54685;52.082;5.426;2022-08-05T13:17:01;24.30;42.20
67890;DHT22;54685;52.082;5.426;2022-08-05T13:19:29;24.40;42.70
67890;DHT22;54685;52.082;5.426;2022-08-05T13:22:16;24.50;42.90
67890;DHT22;54685;52.082;5.426;2022-08-05T13:24:59;24.40;43.80
67890;DHT22;54685;52.082;5.426;2022-08-05T13:27:49;24.50;43.80
67890;DHT22;54685;52.082;5.426;2022-08-05T13:30:18;24.40;44.90
67890;DHT22;54685;52.082;5.426;2022-08-05T13:33:04;24.40;46.40
67890;DHT22;54685;52.082;5.426;2022-08-05T13:35:31;24.20;44.40
67890;DHT22;54685;52.082;5.426;2022-08-05T13:38:08;24.40;45.70
67890;DHT22;54685;52.082;5.426;2022-08-05T13:40:57;24.60;45.40
67890;DHT22;54685;52.082;5.426;2022-08-05T13:43:24;24.40;45.50
67890;DHT22;54685;52.082;5.426;2022-08-05T13:46:11;24.40;46.20
67890;DHT22;54685;52.082;5.426;2022-08-05T13:48:38;24.40;46.50
67890;DHT22;54685;52.082;5.426;2022-08-05T13:51:27;24.30;46.30
67890;DHT22;54685;52.082;5.426;2022-08-05T13:54:02;24.30;47.40
67890;DHT22;54685;52.082;5.426;2022-08-05T13:56:37;24.30;47.10
67890;DHT22;54685;52.082;5.426;2022-08-05T13:59:11;24.20;46.00
67890;DHT22;54685;52.082;5.426;2022-08-05T14:01:47;24.00;47.60
67890;DHT22;54685;52.082;5.426;2022-08-05T14:04:27;23.90;48.30
67890;DHT22;54685;52.082;5.426;2022-08-05T14:07:22;23.80;48.30
67890;DHT22;54685;52.082;5.426;2022-08-05T14:10:15;23.90;47.80
67890;DHT22;54685;52.082;5.426;2022-08-05T14:12:53;24.10;47.10
67890;DHT22;54685;52.082;5.426;2022-08-05T14:15:20;24.20;47.30
67890;DHT22;54685;52.082;5.426;2022-08-05T14:18:07;24.50;46.30
67890;DHT22;54685;52.082;5.426;2022-08-05T14:20:45;24.70;45.90
67890;DHT22;54685;52.082;5.426;2022-08-05T14:23:15;24.90;44.70
67890;DHT22;54685;52.082;5.426;2022-08-05T14:25:55;25.00;42.30
67890;DHT22;54685;52.082;5.426;2022-08-05T14:28:28;25.00;40.80
67890;DHT22;54685;52.082;5.426;2022-08-05T14:30:57;24.90;41.50
67890;DHT22;54685;52.082;5.426;2022-08-05T14:33:24;24.80;41.70
67890;DHT22;54685;52.082;5.426;2022-08-05T14:35:51;24.80;40.80
67890;DHT22;54685;52.082;5.426;2022-08-05T14:38:21;24.80;41.40
67890;DHT22;54685;52.082;5.426;2022-08-05T14:41:01;24.70;40.90
67890;DHT22;54685;52.082;5.426;2022-08-05T14:43:36;24.50;40.50
67890;DHT22;54685;52.082;5.426;2022-08-05T14:46:24;24.50;42.40
67890;DHT22;54685;52.082;5.426;2022-08-05T14:48:59;24.40;40.90
67890;DHT22;54685;52.082;5.426;2022-08-05T14:51:34;24.20;40.70
67890;DHT22;54685;52.082;5.426;2022-08-05T14:54:01;24.10;41.80
67890;DHT22;54685;52.082;5.426;2022-08-05T14:56:47;24.00;41.70
67890;DHT22;54685;52.082;5.426;2022-08-05T14:59:19;24.10;42.60
67890;DHT22;54685;52.082;5.426;2022-08-05T15:01:47;23.90;41.80
67890;DHT22;54685;52.082;5.426;2022-08-05T15:04:16;23.90;42.50
67890;DHT22;54685;52.082;5.426;2022-08-05T15:06:48;23.70;42.40
67890;DHT22;54685;52.082;5.426;2022-08-05T15:09:17;23.50;42.70
67890;DHT22;54685;52.082;5.426;2022-08-05T15:12:04;23.40;43.60
67890;DHT22;54685;52.082;5.426;2022-08-05T15:14:34;23.60;43.10
67890;DHT22;54685;52.082;5.426;2022-08-05T15:17:15;23.70;43.40
67890;DHT22;54685;52.082;5.426;2022-08-05T15:20:03;23.70;41.80
67890;DHT22;54685;52.082;5.426;2022-08-05T15:22:31;23.70;45.00
67890;DHT22;54685;52.082;5.426;2022-08-05T15:24:58;23.70;46.90
67890;DHT22;54685;52.082;5.426;2022-08-05T15:27:25;23.50;48.40
67890;DHT22;54685;52.082;5.426;2022-08-05T15:30:02;23.50;49.90
67890;DHT22;54685;52.082;5.426;2022-08-05T15:32:29;23.50;49.00
67890;DHT22;54685;52.082;5.426;2022-08-05T15:34:57;23.40;49.00
67890;DHT22;54685;52.082;5.426;2022-08-05T15:37:29;23.30;49.20
67890;DHT22;54685;52.082;5.426;2022-08-05T15:40:16;23.30;49.70
67890;DHT22;54685;52.082;5.426;2022-08-05T15:43:04;23.30;49.80
67890;DHT22;54685;52.082;5.426;2022-08-05T15:45:44;23.50;53.00
67890;DHT22;54685;52.082;5.426;2022-08-05T15:48:14;23.70;52.60
67890;DHT22;54685;52.082;5.426;2022-08-05T15:50:41;23.80;53.20
67890;DHT22;54685;52.082;5.426;2022-08-05T15:53:11;23.80;53.30
67890;DHT22;54685;52.082;5.426;2022-08-05T15:55:40;23.80;54.00
67890;DHT22;54685;52.082;5.426;2022-08-05T15:58:26;23.60;52.60
67890;DHT22;54685;52.082;5.426;2022-08-05T16:00:59;23.60;51.50
67890;DHT22;54685;52.082;5.426;2022-08-05T16:03:45;23.50;51.70
67890;DHT22;54685;52.082;5.426;2022-08-05T16:06:17;23.60;52.00
67890;DHT22;54685;52.082;5.426;2022-08-05T16:08:47;23.60;50.90
67890;DHT22;54685;52.082;5.426;2022-08-05T16:11:19;23.60;49.10
67890;DHT22;54685;52.082;5.426;2022-08-05T16:14:05;23.60;47.80
67890;DHT22;54685;52.082;5.426;2022-08-05T16:16:34;23.50;46.40
67890;DHT22;54685;52.082;5.426;2022-08-05T16:19:04;23.50;48.00
67890;DHT22;54685;52.082;5.426;2022-08-05T16:21:31;23.50;46.80
67890;DHT22;54685;52.082;5.426;2022-08-05T16:24:17;23.60;46.40
67890;DHT22;54685;52.082;5.426;2022-08-05T16:27:04;23.70;47.70
67890;DHT22;54685;52.082;5.426;2022-08-05T16:29:33;23.80;47.40
67890;DHT22;54685;52.082;5.426;2022-08-05T16:32:04;23.70;48.30
67890;DHT22;54685;52.082;5.426;2022-08-05T16:34:32;23.70;49.30
67890;DHT22;54685;52.082;5.426;2022-08-05T16:37:01;23.60;48.90
67890;DHT22;54685;52.082;5.426;2022-08-05T16:39:48;23.70;47.90
67890;DHT22;54685;52.082;5.426;2022-08-05T16:42:32;23.40;48.00
67890;DHT22;54685;52.082;5.426;2022-08-05T16:45:00;23.20;47.80
67890;DHT22;54685;52.082;5.426;2022-08-05T16:47:47;23.10;47.60
67890;DHT22;54685;52.082;5.426;2022-08-05T16:50:21;23.00;49.40
67890;DHT22;54685;52.082;5.426;2022-08-05T16:52:49;23.00;48.60